createdAt,value
2019-05-01T00:00:18.375Z,0
2019-05-01T00:01:19.769Z,0
2019-05-01T00:02:21.166Z,0
2019-05-01T00:03:22.573Z,0
2019-05-01T00:04:23.963Z,0
2019-05-01T00:05:25.360Z,0
2019-05-01T00:06:26.770Z,0
2019-05-01T00:07:28.168Z,0
2019-05-01T00:08:29.578Z,0
2019-05-01T00:09:30.972Z,0
2019-05-01T00:10:32.406Z,0
2019-05-01T00:11:33.858Z,0
2019-05-01T00:12:35.300Z,0
2019-05-01T00:13:36.685Z,0
2019-05-01T00:14:38.082Z,0
2019-05-01T00:15:39.525Z,0
2019-05-01T00:16:40.925Z,0
2019-05-01T00:17:42.319Z,0
2019-05-01T00:18:43.723Z,0
2019-05-01T00:19:45.155Z,0
2019-05-01T00:20:46.633Z,0
2019-05-01T00:21:48.031Z,0
2019-05-01T00:22:49.423Z,0
2019-05-01T00:23:50.821Z,0
2019-05-01T00:24:52.337Z,0
2019-05-01T00:25:53.746Z,0
2019-05-01T00:26:55.139Z,0
2019-05-01T00:27:56.531Z,0
2019-05-01T00:28:57.955Z,0
2019-05-01T00:29:59.380Z,0
2019-05-01T00:31:00.765Z,0
2019-05-01T00:32:02.158Z,0
2019-05-01T00:33:03.557Z,0
2019-05-01T00:34:04.954Z,0
2019-05-01T00:35:06.350Z,0
2019-05-01T00:36:07.746Z,0
2019-05-01T00:37:09.141Z,0
2019-05-01T00:38:10.536Z,0
2019-05-01T00:39:11.978Z,0
2019-05-01T00:40:13.362Z,0
2019-05-01T00:41:14.754Z,0
2019-05-01T00:42:16.146Z,0
2019-05-01T00:43:17.531Z,0
2019-05-01T00:44:18.920Z,0
2019-05-01T00:45:20.318Z,0
2019-05-01T00:46:21.700Z,0
2019-05-01T00:47:23.094Z,0
2019-05-01T00:48:24.484Z,0
2019-05-01T00:49:25.870Z,0
2019-05-01T00:50:27.257Z,0
2019-05-01T00:51:28.648Z,0
2019-05-01T00:52:30.043Z,0
2019-05-01T00:53:31.430Z,0
2019-05-01T00:54:32.821Z,0
2019-05-01T00:55:34.215Z,0
2019-05-01T00:56:35.611Z,0
2019-05-01T00:57:37.006Z,0
2019-05-01T00:58:38.395Z,0
2019-05-01T00:59:39.779Z,0
2019-05-01T01:00:43.211Z,0
2019-05-01T01:01:42.518Z,0
2019-05-01T01:02:43.965Z,0
2019-05-01T01:03:45.351Z,0
2019-05-01T01:04:46.753Z,0
2019-05-01T01:05:48.146Z,0
2019-05-01T01:06:49.542Z,0
2019-05-01T01:07:50.933Z,0
2019-05-01T01:08:52.322Z,0
2019-05-01T01:09:53.710Z,0
2019-05-01T01:10:55.094Z,0
2019-05-01T01:11:56.511Z,0
2019-05-01T01:12:57.903Z,0
2019-05-01T01:13:59.286Z,0
2019-05-01T01:15:00.679Z,0
2019-05-01T01:16:02.069Z,0
2019-05-01T01:17:03.464Z,0
2019-05-01T01:18:04.866Z,0
2019-05-01T01:19:06.256Z,0
2019-05-01T01:20:07.632Z,0
2019-05-01T01:21:09.034Z,0
2019-05-01T01:22:10.421Z,0
2019-05-01T01:23:11.819Z,0
2019-05-01T01:24:13.218Z,0
2019-05-01T01:25:14.600Z,0
2019-05-01T01:26:15.985Z,0
2019-05-01T01:27:17.386Z,0
2019-05-01T01:28:18.792Z,0
2019-05-01T01:29:20.217Z,0
2019-05-01T01:30:21.581Z,0
2019-05-01T01:31:22.971Z,0
2019-05-01T01:32:24.357Z,0
2019-05-01T01:33:25.745Z,0
2019-05-01T01:34:27.141Z,0
2019-05-01T01:35:28.530Z,0
2019-05-01T01:36:29.923Z,0
2019-05-01T01:37:31.309Z,0
2019-05-01T01:38:32.706Z,0
2019-05-01T01:39:34.103Z,0
2019-05-01T01:40:35.504Z,0
2019-05-01T01:41:36.900Z,0
2019-05-01T01:42:38.294Z,0
2019-05-01T01:43:39.683Z,0
2019-05-01T01:44:41.092Z,0
2019-05-01T01:45:42.484Z,0
2019-05-01T01:46:43.876Z,0
2019-05-01T01:47:45.268Z,0
2019-05-01T01:48:46.656Z,0
2019-05-01T01:49:48.055Z,0
2019-05-01T01:50:49.448Z,0
2019-05-01T01:51:50.837Z,0
2019-05-01T01:52:52.246Z,0
2019-05-01T01:53:53.672Z,0
2019-05-01T01:54:55.059Z,0
2019-05-01T01:55:56.444Z,0
2019-05-01T01:56:57.846Z,0
2019-05-01T01:57:59.237Z,0
2019-05-01T01:59:00.630Z,0
2019-05-01T02:00:02.027Z,0
2019-05-01T02:01:09.344Z,0
2019-05-01T02:02:04.773Z,0
2019-05-01T02:03:06.155Z,0
2019-05-01T02:04:07.549Z,0
2019-05-01T02:05:08.937Z,0
2019-05-01T02:06:10.333Z,0
2019-05-01T02:07:11.728Z,0
2019-05-01T02:08:13.124Z,0
2019-05-01T02:09:14.520Z,0
2019-05-01T02:10:15.988Z,0
2019-05-01T02:11:17.262Z,0
2019-05-01T02:12:18.658Z,0
2019-05-01T02:13:20.046Z,0
2019-05-01T02:14:21.443Z,0
2019-05-01T02:15:22.838Z,0
2019-05-01T02:16:24.232Z,0
2019-05-01T02:17:25.626Z,0
2019-05-01T02:18:27.045Z,0
2019-05-01T02:19:28.431Z,0
2019-05-01T02:20:29.813Z,0
2019-05-01T02:21:31.197Z,0
2019-05-01T02:22:32.595Z,0
2019-05-01T02:23:33.986Z,0
2019-05-01T02:24:35.378Z,0
2019-05-01T02:25:36.773Z,0
2019-05-01T02:26:38.209Z,0
2019-05-01T02:27:39.607Z,0
2019-05-01T02:28:41.005Z,0
2019-05-01T02:29:42.397Z,0
2019-05-01T02:30:43.786Z,0
2019-05-01T02:31:45.175Z,0
2019-05-01T02:32:46.569Z,0
2019-05-01T02:33:47.961Z,0
2019-05-01T02:34:49.367Z,0
2019-05-01T02:35:50.765Z,0
2019-05-01T02:36:52.162Z,0
2019-05-01T02:37:53.544Z,0
2019-05-01T02:38:54.936Z,0
2019-05-01T02:39:56.321Z,0
2019-05-01T02:40:57.732Z,0
2019-05-01T02:41:59.109Z,0
2019-05-01T02:43:00.503Z,0
2019-05-01T02:44:01.897Z,0
2019-05-01T02:45:03.301Z,0
2019-05-01T02:46:04.687Z,0
2019-05-01T02:47:06.081Z,0
2019-05-01T02:48:07.477Z,0
2019-05-01T02:49:08.863Z,0
2019-05-01T02:50:10.267Z,0
2019-05-01T02:51:11.655Z,0
2019-05-01T02:52:13.050Z,0
2019-05-01T02:53:14.438Z,0
2019-05-01T02:54:15.835Z,0
2019-05-01T02:55:17.216Z,0
2019-05-01T02:56:18.619Z,0
2019-05-01T02:57:20.018Z,0
2019-05-01T02:58:21.407Z,0
2019-05-01T02:59:22.796Z,0
2019-05-01T03:00:24.187Z,0
2019-05-01T03:01:25.573Z,0
2019-05-01T03:02:26.993Z,0
2019-05-01T03:03:28.368Z,4
2019-05-01T03:04:29.754Z,4
2019-05-01T03:05:31.138Z,0
2019-05-01T03:06:32.533Z,4
2019-05-01T03:07:33.932Z,4
2019-05-01T03:08:35.311Z,4
2019-05-01T03:09:36.710Z,4
2019-05-01T03:10:38.104Z,4
2019-05-01T03:11:39.511Z,8
2019-05-01T03:12:40.887Z,8
2019-05-01T03:13:42.272Z,8
2019-05-01T03:14:43.667Z,8
2019-05-01T03:15:45.057Z,12
2019-05-01T03:16:46.450Z,12
2019-05-01T03:17:47.836Z,16
2019-05-01T03:18:49.228Z,16
2019-05-01T03:19:50.607Z,20
2019-05-01T03:20:52.012Z,20
2019-05-01T03:21:53.400Z,24
2019-05-01T03:22:54.789Z,28
2019-05-01T03:23:56.173Z,32
2019-05-01T03:24:57.567Z,36
2019-05-01T03:25:58.950Z,40
2019-05-01T03:27:00.348Z,44
2019-05-01T03:28:01.736Z,48
2019-05-01T03:29:03.128Z,56
2019-05-01T03:30:04.540Z,60
2019-05-01T03:31:05.940Z,64
2019-05-01T03:32:18.033Z,68
2019-05-01T03:33:08.907Z,72
2019-05-01T03:34:10.292Z,76
2019-05-01T03:35:11.681Z,76
2019-05-01T03:36:13.073Z,84
2019-05-01T03:37:14.461Z,88
2019-05-01T03:38:15.855Z,92
2019-05-01T03:39:17.255Z,96
2019-05-01T03:40:18.649Z,104
2019-05-01T03:41:20.041Z,108
2019-05-01T03:42:21.433Z,116
2019-05-01T03:43:22.828Z,120
2019-05-01T03:44:24.221Z,128
2019-05-01T03:45:25.617Z,144
2019-05-01T03:46:26.999Z,160
2019-05-01T03:47:28.391Z,176
2019-05-01T03:48:29.786Z,196
2019-05-01T03:49:31.176Z,220
2019-05-01T03:50:32.568Z,252
2019-05-01T03:51:33.972Z,280
2019-05-01T03:52:35.370Z,308
2019-05-01T03:53:36.769Z,336
2019-05-01T03:54:38.157Z,352
2019-05-01T03:55:39.555Z,364
2019-05-01T03:56:40.938Z,372
2019-05-01T03:57:42.345Z,384
2019-05-01T03:58:43.735Z,396
2019-05-01T03:59:45.122Z,408
2019-05-01T04:00:46.520Z,420
2019-05-01T04:01:47.923Z,444
2019-05-01T04:02:49.310Z,464
2019-05-01T04:03:50.725Z,488
2019-05-01T04:04:52.115Z,524
2019-05-01T04:05:53.563Z,556
2019-05-01T04:06:54.891Z,588
2019-05-01T04:07:56.287Z,608
2019-05-01T04:08:57.676Z,624
2019-05-01T04:09:59.083Z,652
2019-05-01T04:11:00.477Z,672
2019-05-01T04:12:01.870Z,692
2019-05-01T04:13:03.267Z,716
2019-05-01T04:14:04.670Z,736
2019-05-01T04:15:06.055Z,740
2019-05-01T04:16:07.452Z,732
2019-05-01T04:17:08.851Z,740
2019-05-01T04:18:10.237Z,756
2019-05-01T04:19:11.633Z,776
2019-05-01T04:20:13.024Z,808
2019-05-01T04:21:14.426Z,852
2019-05-01T04:22:15.798Z,908
2019-05-01T04:23:17.191Z,984
2019-05-01T04:24:18.586Z,1068
2019-05-01T04:25:19.978Z,1180
2019-05-01T04:26:21.369Z,1308
2019-05-01T04:27:22.759Z,1436
2019-05-01T04:28:24.157Z,1540
2019-05-01T04:29:25.542Z,1608
2019-05-01T04:30:26.941Z,1632
2019-05-01T04:31:28.329Z,1676
2019-05-01T04:32:29.716Z,1728
2019-05-01T04:33:31.113Z,1768
2019-05-01T04:34:32.507Z,1864
2019-05-01T04:35:33.911Z,1944
2019-05-01T04:36:35.313Z,2008
2019-05-01T04:37:36.715Z,1996
2019-05-01T04:38:38.115Z,2024
2019-05-01T04:39:39.496Z,2044
2019-05-01T04:40:40.893Z,2048
2019-05-01T04:41:42.296Z,2068
2019-05-01T04:42:43.685Z,2132
2019-05-01T04:43:45.084Z,2204
2019-05-01T04:44:46.481Z,2244
2019-05-01T04:45:47.869Z,2324
2019-05-01T04:46:49.272Z,2376
2019-05-01T04:47:50.658Z,2376
2019-05-01T04:48:52.054Z,2384
2019-05-01T04:49:53.442Z,2332
2019-05-01T04:50:54.829Z,2316
2019-05-01T04:51:56.226Z,2348
2019-05-01T04:52:57.615Z,2460
2019-05-01T04:53:59.007Z,2556
2019-05-01T04:55:00.403Z,2492
2019-05-01T04:56:01.797Z,2572
2019-05-01T04:57:03.200Z,2652
2019-05-01T04:58:04.599Z,2888
2019-05-01T04:59:05.996Z,3088
2019-05-01T05:00:07.392Z,3216
2019-05-01T05:01:08.787Z,3316
2019-05-01T05:02:10.187Z,3532
2019-05-01T05:03:11.588Z,3560
2019-05-01T05:04:12.980Z,3376
2019-05-01T05:05:14.391Z,3220
2019-05-01T05:06:15.788Z,3120
2019-05-01T05:07:17.174Z,3136
2019-05-01T05:08:18.572Z,3248
2019-05-01T05:09:19.967Z,3296
2019-05-01T05:10:21.365Z,3324
2019-05-01T05:11:22.755Z,3460
2019-05-01T05:12:24.145Z,3652
2019-05-01T05:13:25.541Z,3940
2019-05-01T05:14:26.938Z,3952
2019-05-01T05:15:28.334Z,3916
2019-05-01T05:16:29.733Z,3816
2019-05-01T05:17:31.121Z,3792
2019-05-01T05:18:32.515Z,3872
2019-05-01T05:19:34.045Z,3600
2019-05-01T05:20:35.441Z,3504
2019-05-01T05:21:36.850Z,3512
2019-05-01T05:22:38.240Z,3604
2019-05-01T05:23:39.638Z,3860
2019-05-01T05:24:41.031Z,4340
2019-05-01T05:25:42.433Z,4248
2019-05-01T05:26:43.828Z,3428
2019-05-01T05:27:45.232Z,2856
2019-05-01T05:28:46.619Z,2732
2019-05-01T05:29:48.016Z,2604
2019-05-01T05:30:49.410Z,2420
2019-05-01T05:31:50.804Z,2508
2019-05-01T05:32:52.198Z,2952
2019-05-01T05:33:53.603Z,3020
2019-05-01T05:34:54.986Z,3024
2019-05-01T05:35:56.368Z,2844
2019-05-01T05:36:57.822Z,3244
2019-05-01T05:37:59.155Z,3032
2019-05-01T05:39:00.551Z,2932
2019-05-01T05:40:01.994Z,2732
2019-05-01T05:41:03.339Z,2644
2019-05-01T05:42:04.731Z,2964
2019-05-01T05:43:06.712Z,3084
2019-05-01T05:44:08.098Z,2732
2019-05-01T05:45:09.487Z,2588
2019-05-01T05:46:10.882Z,2500
2019-05-01T05:47:12.271Z,2568
2019-05-01T05:48:13.665Z,2464
2019-05-01T05:49:15.053Z,2628
2019-05-01T05:50:16.452Z,2472
2019-05-01T05:51:17.850Z,2452
2019-05-01T05:52:19.242Z,2624
2019-05-01T05:53:20.636Z,3100
2019-05-01T05:54:22.032Z,3428
2019-05-01T05:55:23.429Z,3384
2019-05-01T05:56:24.821Z,3856
2019-05-01T05:57:26.220Z,5128
2019-05-01T05:58:27.615Z,4388
2019-05-01T05:59:29.016Z,4324
2019-05-01T06:00:30.409Z,3656
2019-05-01T06:01:31.804Z,3928
2019-05-01T06:02:33.202Z,4080
2019-05-01T06:03:35.181Z,3968
2019-05-01T06:04:35.959Z,3636
2019-05-01T06:05:37.345Z,3716
2019-05-01T06:06:38.740Z,4644
2019-05-01T06:07:40.137Z,4692
2019-05-01T06:08:41.616Z,4800
2019-05-01T06:09:44.762Z,4532
2019-05-01T06:10:44.250Z,3940
2019-05-01T06:11:45.667Z,4484
2019-05-01T06:12:48.560Z,4760
2019-05-01T06:13:48.439Z,4428
2019-05-01T06:14:49.833Z,4232
2019-05-01T06:15:51.223Z,3676
2019-05-01T06:16:53.996Z,3704
2019-05-01T06:17:53.978Z,3888
2019-05-01T06:18:55.375Z,4184
2019-05-01T06:19:56.782Z,4132
2019-05-01T06:21:02.217Z,3676
2019-05-01T06:21:59.528Z,3972
2019-05-01T06:23:00.927Z,4192
2019-05-01T06:24:06.551Z,4668
2019-05-01T06:25:03.678Z,4764
2019-05-01T06:26:05.088Z,5576
2019-05-01T06:27:08.878Z,5116
2019-05-01T06:28:07.826Z,4328
2019-05-01T06:29:09.217Z,3412
2019-05-01T06:30:10.979Z,3160
2019-05-01T06:31:11.978Z,2632
2019-05-01T06:32:13.374Z,2880
2019-05-01T06:33:14.767Z,3332
2019-05-01T06:34:16.154Z,3368
2019-05-01T06:35:17.555Z,3744
2019-05-01T06:36:18.940Z,3496
2019-05-01T06:37:20.837Z,3428
2019-05-01T06:38:21.694Z,3664
2019-05-01T06:39:23.094Z,3664
2019-05-01T06:40:24.483Z,3604
2019-05-01T06:41:28.614Z,3852
2019-05-01T06:42:27.239Z,4236
2019-05-01T06:43:28.639Z,4436
2019-05-01T06:44:33.557Z,4504
2019-05-01T06:45:31.389Z,4084
2019-05-01T06:46:35.263Z,4448
2019-05-01T06:47:38.041Z,4636
2019-05-01T06:48:35.498Z,4020
2019-05-01T06:49:36.898Z,4112
2019-05-01T06:50:41.555Z,4440
2019-05-01T06:51:39.656Z,4904
2019-05-01T06:52:41.060Z,5456
2019-05-01T06:53:42.462Z,5984
2019-05-01T06:54:47.663Z,5832
2019-05-01T06:55:45.211Z,6288
2019-05-01T06:56:47.605Z,7228
2019-05-01T06:57:49.008Z,7424
2019-05-01T06:58:51.086Z,6872
2019-05-01T06:59:51.778Z,6884
2019-05-01T07:00:53.172Z,6648
2019-05-01T07:01:58.480Z,6584
2019-05-01T07:02:55.929Z,7180
2019-05-01T07:04:03.366Z,10604
2019-05-01T07:04:58.692Z,12464
2019-05-01T07:06:00.095Z,24320
2019-05-01T07:07:01.931Z,17024
2019-05-01T07:08:02.848Z,28064
2019-05-01T07:09:07.002Z,19424
2019-05-01T07:10:05.610Z,18848
2019-05-01T07:11:10.933Z,14924
2019-05-01T07:12:08.361Z,16672
2019-05-01T07:13:09.766Z,15808
2019-05-01T07:14:15.773Z,18208
2019-05-01T07:15:12.546Z,15840
2019-05-01T07:16:13.962Z,13140
2019-05-01T07:17:15.366Z,17632
2019-05-01T07:18:18.838Z,11556
2019-05-01T07:19:18.124Z,9648
2019-05-01T07:20:19.523Z,9268
2019-05-01T07:21:22.763Z,10076
2019-05-01T07:22:22.316Z,10528
2019-05-01T07:23:23.694Z,10496
2019-05-01T07:24:27.954Z,10308
2019-05-01T07:25:26.452Z,10488
2019-05-01T07:26:27.854Z,11716
2019-05-01T07:27:29.264Z,12320
2019-05-01T07:28:34.195Z,12584
2019-05-01T07:29:32.963Z,13084
2019-05-01T07:30:33.388Z,14544
2019-05-01T07:31:34.793Z,14228
2019-05-01T07:32:36.418Z,13704
2019-05-01T07:33:37.571Z,13676
2019-05-01T07:34:38.972Z,14624
2019-05-01T07:35:40.378Z,18368
2019-05-01T07:36:45.524Z,13260
2019-05-01T07:37:43.137Z,15872
2019-05-01T07:38:44.545Z,15648
2019-05-01T07:39:49.953Z,12816
2019-05-01T07:40:47.336Z,11160
2019-05-01T07:41:48.733Z,10504
2019-05-01T07:42:50.139Z,10748
2019-05-01T07:43:54.974Z,8448
2019-05-01T07:44:52.900Z,9208
2019-05-01T07:45:54.297Z,10244
2019-05-01T07:46:56.256Z,9148
2019-05-01T07:48:00.983Z,9580
2019-05-01T07:48:58.418Z,9572
2019-05-01T07:49:59.820Z,8536
2019-05-01T07:51:01.955Z,8248
2019-05-01T07:52:02.582Z,9644
2019-05-01T07:53:03.975Z,8156
2019-05-01T07:54:08.753Z,7456
2019-05-01T07:55:06.771Z,7524
2019-05-01T07:56:08.160Z,7252
2019-05-01T07:57:09.568Z,8388
2019-05-01T07:58:16.029Z,8308
2019-05-01T07:59:12.340Z,7808
2019-05-01T08:00:13.737Z,7724
2019-05-01T08:01:18.320Z,9088
2019-05-01T08:02:16.504Z,12916
2019-05-01T08:03:17.911Z,8256
2019-05-01T08:04:35.297Z,8548
2019-05-01T08:05:20.677Z,9904
2019-05-01T08:06:22.922Z,9948
2019-05-01T08:07:23.439Z,10876
2019-05-01T08:08:24.847Z,9212
2019-05-01T08:09:26.247Z,10564
2019-05-01T08:10:30.828Z,10708
2019-05-01T08:11:29.014Z,10860
2019-05-01T08:12:30.429Z,11764
2019-05-01T08:13:34.965Z,10972
2019-05-01T08:14:33.205Z,11604
2019-05-01T08:15:34.603Z,14000
2019-05-01T08:16:37.855Z,12044
2019-05-01T08:17:37.405Z,30528
2019-05-01T08:18:38.821Z,18016
2019-05-01T08:19:40.714Z,46304
2019-05-01T08:20:41.554Z,16480
2019-05-01T08:21:42.962Z,21568
2019-05-01T08:22:44.357Z,20704
2019-05-01T08:23:47.228Z,15204
2019-05-01T08:24:47.160Z,12144
2019-05-01T08:25:48.579Z,12080
2019-05-01T08:26:49.967Z,16384
2019-05-01T08:27:55.836Z,27040
2019-05-01T08:28:52.787Z,34208
2019-05-01T08:29:54.191Z,29376
2019-05-01T08:30:55.605Z,14488
2019-05-01T08:31:58.735Z,17376
2019-05-01T08:32:58.409Z,19520
2019-05-01T08:33:59.819Z,23168
2019-05-01T08:35:02.419Z,36608
2019-05-01T08:36:06.678Z,49856
2019-05-01T08:37:06.480Z,19904
2019-05-01T08:38:05.935Z,22240
2019-05-01T08:39:09.228Z,18624
2019-05-01T08:40:08.705Z,14220
2019-05-01T08:41:10.114Z,17952
2019-05-01T08:42:11.512Z,16480
2019-05-01T08:43:13.687Z,26240
2019-05-01T08:44:14.306Z,21344
2019-05-01T08:45:15.718Z,8528
2019-05-01T08:46:17.776Z,15616
2019-05-01T08:47:20.786Z,17728
2019-05-01T08:48:19.854Z,18400
2019-05-01T08:49:21.266Z,76160
2019-05-01T08:50:24.817Z,25792
2019-05-01T08:51:24.057Z,16480
2019-05-01T08:52:25.457Z,16352
2019-05-01T08:53:26.900Z,17120
2019-05-01T08:54:29.043Z,21440
2019-05-01T08:55:29.856Z,42432
2019-05-01T08:56:31.271Z,74592
2019-05-01T08:57:34.553Z,77824
2019-05-01T08:58:34.077Z,65888
2019-05-01T08:59:35.612Z,18016
2019-05-01T09:00:40.956Z,12072
2019-05-01T09:01:38.380Z,19648
2019-05-01T09:02:41.638Z,46336
2019-05-01T09:03:41.155Z,45088
2019-05-01T09:04:42.557Z,14048
2019-05-01T09:05:44.014Z,19328
2019-05-01T09:06:45.458Z,22304
2019-05-01T09:07:46.870Z,34144
2019-05-01T09:08:48.213Z,27168
2019-05-01T09:09:49.623Z,67328
2019-05-01T09:10:54.815Z,30048
2019-05-01T09:11:54.551Z,43968
2019-05-01T09:12:53.764Z,36864
2019-05-01T09:13:58.787Z,48608
2019-05-01T09:14:56.543Z,69952
2019-05-01T09:15:57.983Z,60832
2019-05-01T09:16:59.398Z,23456
2019-05-01T09:18:00.802Z,70304
2019-05-01T09:19:02.212Z,67168
2019-05-01T09:20:03.624Z,69504
2019-05-01T09:21:05.041Z,20096
2019-05-01T09:22:06.468Z,32448
2019-05-01T09:23:09.576Z,30720
2019-05-01T09:24:09.246Z,20704
2019-05-01T09:25:10.666Z,76576
2019-05-01T09:26:15.931Z,64384
2019-05-01T09:27:13.450Z,21280
2019-05-01T09:28:14.857Z,61088
2019-05-01T09:29:17.828Z,33696
2019-05-01T09:30:21.685Z,50752
2019-05-01T09:31:19.041Z,81792
2019-05-01T09:32:20.439Z,46400
2019-05-01T09:33:21.851Z,58784
2019-05-01T09:34:23.281Z,79104
2019-05-01T09:35:24.697Z,79808
2019-05-01T09:36:26.111Z,41408
2019-05-01T09:37:27.520Z,22976
2019-05-01T09:38:28.953Z,87296
2019-05-01T09:39:30.354Z,75968
2019-05-01T09:40:31.775Z,81344
2019-05-01T09:41:38.333Z,27680
2019-05-01T09:42:34.570Z,17632
2019-05-01T09:43:36.943Z,27840
2019-05-01T09:44:37.385Z,40896
2019-05-01T09:45:38.800Z,54464
2019-05-01T09:46:40.212Z,12536
2019-05-01T09:47:41.627Z,14076
2019-05-01T09:48:43.051Z,51552
2019-05-01T09:49:44.483Z,13808
2019-05-01T09:50:45.900Z,19552
2019-05-01T09:51:47.607Z,12668
2019-05-01T09:52:48.690Z,36704
2019-05-01T09:53:50.102Z,18048
2019-05-01T09:54:51.514Z,27232
2019-05-01T09:55:52.927Z,29120
2019-05-01T09:56:54.349Z,14244
2019-05-01T09:57:55.766Z,91168
2019-05-01T09:58:57.198Z,17056
2019-05-01T09:59:58.610Z,79488
2019-05-01T10:01:00.006Z,21376
2019-05-01T10:02:02.955Z,20864
2019-05-01T10:03:02.776Z,55008
2019-05-01T10:04:05.580Z,97888
2019-05-01T10:05:06.638Z,94016
2019-05-01T10:06:07.005Z,92896
2019-05-01T10:07:08.466Z,92416
2019-05-01T10:08:09.898Z,67040
2019-05-01T10:09:12.010Z,91808
2019-05-01T10:10:12.805Z,88864
2019-05-01T10:11:14.211Z,22496
2019-05-01T10:12:15.645Z,36576
2019-05-01T10:13:17.767Z,56640
2019-05-01T10:14:18.479Z,36992
2019-05-01T10:15:19.890Z,16576
2019-05-01T10:16:21.307Z,15732
2019-05-01T10:17:22.716Z,42144
2019-05-01T10:18:24.151Z,79968
2019-05-01T10:19:25.562Z,71936
2019-05-01T10:20:26.968Z,70240
2019-05-01T10:21:28.969Z,58336
2019-05-01T10:22:32.933Z,40096
2019-05-01T10:23:31.108Z,25664
2019-05-01T10:24:37.291Z,20704
2019-05-01T10:25:33.893Z,20928
2019-05-01T10:26:35.301Z,25184
2019-05-01T10:27:37.466Z,17472
2019-05-01T10:28:38.081Z,23872
2019-05-01T10:29:39.500Z,20736
2019-05-01T10:30:40.909Z,21376
2019-05-01T10:31:42.904Z,18016
2019-05-01T10:32:43.679Z,14820
2019-05-01T10:33:45.095Z,16444
2019-05-01T10:34:46.497Z,16300
2019-05-01T10:35:47.906Z,15244
2019-05-01T10:36:49.903Z,16176
2019-05-01T10:37:50.693Z,14292
2019-05-01T10:38:52.105Z,14152
2019-05-01T10:39:54.174Z,14996
2019-05-01T10:40:54.872Z,15072
2019-05-01T10:41:56.286Z,18016
2019-05-01T10:42:57.704Z,17696
2019-05-01T10:43:59.100Z,18976
2019-05-01T10:45:00.526Z,20672
2019-05-01T10:46:01.963Z,15684
2019-05-01T10:47:03.361Z,21952
2019-05-01T10:48:04.770Z,21440
2019-05-01T10:49:06.222Z,19616
2019-05-01T10:50:07.586Z,14136
2019-05-01T10:51:08.988Z,19200
2019-05-01T10:52:14.398Z,26944
2019-05-01T10:53:11.772Z,49952
2019-05-01T10:54:13.180Z,79136
2019-05-01T10:55:14.592Z,87744
2019-05-01T10:56:16.002Z,82944
2019-05-01T10:57:17.405Z,86368
2019-05-01T10:58:20.229Z,89440
2019-05-01T10:59:20.202Z,86944
2019-05-01T11:00:21.620Z,88896
2019-05-01T11:01:23.031Z,93952
2019-05-01T11:02:24.442Z,69216
2019-05-01T11:03:25.846Z,99520
2019-05-01T11:04:27.266Z,72288
2019-05-01T11:05:28.661Z,76608
2019-05-01T11:06:30.081Z,41120
2019-05-01T11:07:31.480Z,18336
2019-05-01T11:08:32.896Z,39392
2019-05-01T11:09:34.303Z,11796
2019-05-01T11:10:35.712Z,28288
2019-05-01T11:11:37.114Z,9656
2019-05-01T11:12:38.526Z,8908
2019-05-01T11:13:39.935Z,9868
2019-05-01T11:14:41.334Z,12072
2019-05-01T11:15:42.756Z,74144
2019-05-01T11:16:44.160Z,26720
2019-05-01T11:17:45.589Z,93952
2019-05-01T11:18:46.995Z,90528
2019-05-01T11:19:48.411Z,60256
2019-05-01T11:20:49.813Z,83520
2019-05-01T11:21:51.219Z,16512
2019-05-01T11:22:52.644Z,11660
2019-05-01T11:23:54.041Z,9820
2019-05-01T11:24:55.459Z,9632
2019-05-01T11:25:56.860Z,9168
2019-05-01T11:26:58.263Z,7876
2019-05-01T11:27:59.675Z,7392
2019-05-01T11:29:01.100Z,7748
2019-05-01T11:30:02.519Z,7344
2019-05-01T11:31:03.919Z,6628
2019-05-01T11:32:05.324Z,6004
2019-05-01T11:33:06.727Z,5812
2019-05-01T11:34:08.146Z,5288
2019-05-01T11:35:09.562Z,5164
2019-05-01T11:36:10.972Z,5348
2019-05-01T11:37:12.392Z,5988
2019-05-01T11:38:13.800Z,5932
2019-05-01T11:39:15.203Z,6244
2019-05-01T11:40:16.610Z,6644
2019-05-01T11:41:18.016Z,6516
2019-05-01T11:42:19.425Z,27744
2019-05-01T11:43:20.858Z,20192
2019-05-01T11:44:22.319Z,12420
2019-05-01T11:45:23.725Z,10384
2019-05-01T11:46:25.128Z,9256
2019-05-01T11:47:26.535Z,9020
2019-05-01T11:48:30.079Z,10052
2019-05-01T11:49:29.321Z,12620
2019-05-01T11:50:30.743Z,12508
2019-05-01T11:51:32.169Z,40096
2019-05-01T11:52:33.597Z,27744
2019-05-01T11:53:35.016Z,11636
2019-05-01T11:54:36.419Z,17472
2019-05-01T11:55:37.815Z,60544
2019-05-01T11:56:39.225Z,12008
2019-05-01T11:57:40.636Z,16416
2019-05-01T11:58:42.040Z,17024
2019-05-01T11:59:43.450Z,12884
2019-05-01T12:00:44.796Z,15868
2019-05-01T12:01:46.213Z,16352
2019-05-01T12:02:47.628Z,14872
2019-05-01T12:03:49.075Z,15884
2019-05-01T12:04:50.436Z,16960
2019-05-01T12:05:51.836Z,12720
2019-05-01T12:06:53.234Z,14732
2019-05-01T12:07:54.647Z,13272
2019-05-01T12:08:56.058Z,12844
2019-05-01T12:09:57.471Z,10080
2019-05-01T12:10:58.888Z,11012
2019-05-01T12:12:00.330Z,10548
2019-05-01T12:13:01.739Z,12156
2019-05-01T12:14:03.142Z,13796
2019-05-01T12:15:04.552Z,12468
2019-05-01T12:16:05.957Z,11392
2019-05-01T12:17:07.361Z,9080
2019-05-01T12:18:08.763Z,10248
2019-05-01T12:19:10.169Z,9732
2019-05-01T12:20:11.577Z,10964
2019-05-01T12:21:12.995Z,14228
2019-05-01T12:22:14.397Z,13996
2019-05-01T12:23:15.815Z,12512
2019-05-01T12:24:17.224Z,11436
2019-05-01T12:25:18.677Z,11040
2019-05-01T12:26:20.076Z,10544
2019-05-01T12:27:21.485Z,9308
2019-05-01T12:28:22.900Z,10084
2019-05-01T12:29:24.305Z,36768
2019-05-01T12:30:25.737Z,10968
2019-05-01T12:31:27.132Z,9956
2019-05-01T12:32:28.606Z,12020
2019-05-01T12:33:31.282Z,11076
2019-05-01T12:34:33.572Z,12252
2019-05-01T12:35:34.928Z,10480
2019-05-01T12:36:36.761Z,15076
2019-05-01T12:37:38.226Z,15556
2019-05-01T12:38:39.644Z,10224
2019-05-01T12:39:41.435Z,22240
2019-05-01T12:40:43.205Z,21472
2019-05-01T12:41:44.606Z,11528
2019-05-01T12:42:46.013Z,10188
2019-05-01T12:43:47.415Z,13332
2019-05-01T12:44:48.825Z,11048
2019-05-01T12:45:50.225Z,9532
2019-05-01T12:46:51.673Z,11060
2019-05-01T12:47:53.073Z,9448
2019-05-01T12:48:54.477Z,8764
2019-05-01T12:49:55.885Z,9060
2019-05-01T12:50:57.308Z,8956
2019-05-01T12:52:09.910Z,8632
2019-05-01T12:53:00.084Z,9240
2019-05-01T12:54:01.487Z,10704
2019-05-01T12:55:02.896Z,10044
2019-05-01T12:56:04.313Z,8424
2019-05-01T12:57:05.709Z,10028
2019-05-01T12:58:07.107Z,10012
2019-05-01T12:59:08.513Z,11144
2019-05-01T13:00:09.927Z,9560
2019-05-01T13:01:11.324Z,9356
2019-05-01T13:02:12.722Z,9184
2019-05-01T13:03:14.128Z,8744
2019-05-01T13:04:15.530Z,7848
2019-05-01T13:05:16.936Z,7180
2019-05-01T13:06:18.332Z,7552
2019-05-01T13:07:19.742Z,7100
2019-05-01T13:08:21.140Z,7260
2019-05-01T13:09:22.544Z,8284
2019-05-01T13:10:24.099Z,7420
2019-05-01T13:11:25.430Z,7480
2019-05-01T13:12:26.833Z,7584
2019-05-01T13:13:28.229Z,8956
2019-05-01T13:14:29.641Z,10020
2019-05-01T13:15:31.081Z,9140
2019-05-01T13:16:32.482Z,7760
2019-05-01T13:17:34.515Z,7584
2019-05-01T13:18:35.917Z,9220
2019-05-01T13:19:37.320Z,8988
2019-05-01T13:20:38.719Z,6700
2019-05-01T13:21:40.119Z,6832
2019-05-01T13:22:41.526Z,8752
2019-05-01T13:23:42.922Z,7768
2019-05-01T13:24:44.336Z,7956
2019-05-01T13:25:45.737Z,7244
2019-05-01T13:26:47.143Z,8552
2019-05-01T13:27:48.538Z,7076
2019-05-01T13:28:49.937Z,7496
2019-05-01T13:29:51.346Z,7380
2019-05-01T13:30:52.755Z,7036
2019-05-01T13:31:54.156Z,6492
2019-05-01T13:32:55.547Z,6608
2019-05-01T13:33:56.955Z,6528
2019-05-01T13:34:58.362Z,5548
2019-05-01T13:35:59.758Z,5236
2019-05-01T13:37:03.103Z,5512
2019-05-01T13:38:02.522Z,5916
2019-05-01T13:39:03.927Z,6772
2019-05-01T13:40:05.346Z,6160
2019-05-01T13:41:06.802Z,5912
2019-05-01T13:42:09.091Z,5848
2019-05-01T13:43:09.573Z,5052
2019-05-01T13:44:10.977Z,4444
2019-05-01T13:45:12.389Z,5244
2019-05-01T13:46:13.777Z,5040
2019-05-01T13:47:15.189Z,5708
2019-05-01T13:48:16.613Z,4592
2019-05-01T13:49:18.023Z,5160